Time;durP1;ratioP1;P1;durP2;ratioP2;P2;SDS_P1;SDS_P2;PMS_P1;PMS_P2;Temp;Humidity;BMP_temperature;BMP_pressure;BME280_temperature;BME280_humidity;BME280_pressure;Samples;Min_cycle;Max_cycle;Signal;HPM_P1;HPM_P2
2021/08/21 00:01:06;;;;;;;11.27;3.53;;;;;;;22.62;43.41;99735.56;5030578;28;20026;-48
2021/08/21 00:03:31;;;;;;;6.22;3.28;;;;;;;22.78;42.49;99736.22;5030321;28;20021;-48
2021/08/21 00:05:57;;;;;;;7.65;3.58;;;;;;;22.88;42.18;99721.75;5030279;28;20053;-46
2021/08/21 00:08:22;;;;;;;6.10;3.35;;;;;;;22.39;43.54;99723.53;5030004;28;20410;-47
2021/08/21 00:10:48;;;;;;;7.22;3.40;;;;;;;22.21;43.67;99722.25;5030047;28;20091;-47
2021/08/21 00:13:13;;;;;;;6.00;3.28;;;;;;;22.25;43.62;99726.03;5030128;28;20562;-47
2021/08/21 00:15:38;;;;;;;4.68;3.00;;;;;;;22.44;43.13;99722.66;5030079;28;20030;-47
2021/08/21 00:18:04;;;;;;;6.85;3.20;;;;;;;22.25;43.57;99717.13;5030172;28;20441;-47
2021/08/21 00:20:29;;;;;;;4.65;3.40;;;;;;;22.08;43.95;99717.47;5030264;28;20026;-48
2021/08/21 00:22:55;;;;;;;7.93;3.65;;;;;;;22.12;43.97;99715.81;5029920;28;20425;-47
2021/08/21 00:25:20;;;;;;;6.20;3.42;;;;;;;22.28;43.35;99723.91;5032510;28;20021;-47
2021/08/21 00:27:46;;;;;;;4.78;3.30;;;;;;;22.94;41.91;99717.91;5049510;28;20484;-48
2021/08/21 00:30:12;;;;;;;7.05;3.58;;;;;;;22.47;43.04;99721.31;5049422;28;20024;-49
2021/08/21 00:32:37;;;;;;;4.63;3.50;;;;;;;22.18;43.40;99727.41;5048066;28;20063;-50
2021/08/21 00:35:04;;;;;;;4.68;3.47;;;;;;;22.37;42.97;99727.59;5050044;28;20021;-51
2021/08/21 00:37:29;;;;;;;5.72;3.60;;;;;;;22.81;42.14;99726.72;5049918;28;20032;-51
2021/08/21 00:39:55;;;;;;;4.03;3.40;;;;;;;22.28;43.33;99729.31;5049913;28;20110;-49
2021/08/21 00:42:20;;;;;;;4.10;3.35;;;;;;;22.29;43.35;99733.63;5049859;28;20051;-48
2021/08/21 00:44:46;;;;;;;5.65;3.42;;;;;;;22.27;43.20;99730.41;5049579;28;20389;-51
2021/08/21 00:47:13;;;;;;;4.68;3.70;;;;;;;22.34;42.93;99733.59;5049688;28;20028;-50
2021/08/21 00:49:40;;;;;;;4.78;3.47;;;;;;;22.51;42.34;99730.50;5049950;28;20021;-50
2021/08/21 00:52:07;;;;;;;5.35;3.40;;;;;;;22.13;43.38;99728.28;5049735;28;20385;-48
2021/08/21 00:54:33;;;;;;;6.30;3.30;;;;;;;22.14;43.46;99729.91;5047972;28;20151;-50
2021/08/21 00:57:00;;;;;;;5.18;3.40;;;;;;;22.16;43.70;99729.59;5049784;28;20032;-50
2021/08/21 00:59:29;;;;;;;5.13;3.63;;;;;;;22.60;42.38;99728.81;5049729;28;20103;-47
2021/08/21 01:01:54;;;;;;;5.35;3.42;;;;;;;22.16;43.51;99724.19;5048192;28;20386;-48
2021/08/21 01:04:20;;;;;;;6.18;3.58;;;;;;;21.74;44.36;99720.09;5052127;28;20033;-48
2021/08/21 01:06:45;;;;;;;4.90;3.30;;;;;;;21.85;44.04;99730.59;5053391;28;20428;-51
2021/08/21 01:09:11;;;;;;;4.47;3.30;;;;;;;22.02;43.56;99732.94;5053325;28;20085;-49
2021/08/21 01:11:36;;;;;;;5.57;3.60;;;;;;;21.97;43.66;99740.28;5053487;28;20029;-48
2021/08/21 01:14:02;;;;;;;4.68;3.53;;;;;;;21.75;43.78;99736.06;5053699;28;20487;-49
2021/08/21 01:16:28;;;;;;;6.47;3.75;;;;;;;21.84;44.24;99744.44;5053469;28;20017;-46
2021/08/21 01:18:53;;;;;;;7.32;3.80;;;;;;;21.88;43.54;99737.38;5053279;28;20449;-50
2021/08/21 01:21:19;;;;;;;5.40;3.55;;;;;;;22.45;42.52;99746.00;5053463;28;20089;-50
2021/08/21 01:23:45;;;;;;;5.80;3.60;;;;;;;22.17;43.22;99742.88;5053226;28;20040;-46
2021/08/21 01:26:11;;;;;;;5.60;3.45;;;;;;;22.08;43.46;99747.25;5043002;28;20066;-50
2021/08/21 01:28:36;;;;;;;5.28;3.80;;;;;;;21.92;43.31;99727.59;5033219;28;20022;-46
2021/08/21 01:31:08;;;;;;;7.60;3.58;;;;;;;22.42;42.98;99746.53;5033008;28;20032;-46
2021/08/21 01:33:34;;;;;;;5.15;3.35;;;;;;;22.17;43.33;99756.44;5031641;28;20127;-49
2021/08/21 01:36:00;;;;;;;7.65;3.50;;;;;;;22.05;43.67;99755.97;5033002;28;20045;-47
2021/08/21 01:38:25;;;;;;;4.40;3.40;;;;;;;21.97;43.66;99746.53;5033346;28;20068;-47
2021/08/21 01:40:51;;;;;;;6.32;3.65;;;;;;;22.15;43.22;99747.78;5033196;28;20417;-48
2021/08/21 01:43:17;;;;;;;5.93;3.58;;;;;;;22.50;42.25;99745.94;5033138;28;20131;-50
2021/08/21 01:45:43;;;;;;;6.15;3.58;;;;;;;22.15;43.46;99739.66;5031590;28;20531;-51
2021/08/21 01:48:08;;;;;;;4.68;3.42;;;;;;;21.69;44.14;99748.00;5033038;28;20033;-50
2021/08/21 01:50:34;;;;;;;6.95;3.50;;;;;;;21.54;44.09;99743.47;5032913;28;20095;-47
2021/08/21 01:52:59;;;;;;;4.50;3.30;;;;;;;21.78;43.53;99740.09;5032832;28;20029;-48
2021/08/21 01:55:25;;;;;;;7.97;3.47;;;;;;;21.33;44.88;99750.78;5033104;28;20021;-49
2021/08/21 01:57:50;;;;;;;4.13;3.30;;;;;;;21.14;45.41;99753.28;5032808;28;20132;-50
2021/08/21 02:00:16;;;;;;;5.30;3.83;;;;;;;20.97;45.65;99750.06;5032354;28;20029;-48
2021/08/21 02:02:42;;;;;;;6.88;3.60;;;;;;;21.35;44.55;99755.94;5032453;28;20101;-48
2021/08/21 02:05:08;;;;;;;6.10;3.50;;;;;;;21.31;44.82;99750.25;5032591;28;20536;-47
2021/08/21 02:07:34;;;;;;;5.72;3.75;;;;;;;21.00;45.66;99755.72;5031692;28;20053;-46
2021/08/21 02:09:59;;;;;;;4.50;3.45;;;;;;;21.19;45.28;99753.28;5031443;28;20440;-47
2021/08/21 02:12:25;;;;;;;6.60;3.58;;;;;;;21.32;44.69;99751.88;5031452;28;20017;-48
2021/08/21 02:14:50;;;;;;;6.68;3.70;;;;;;;21.96;43.42;99753.03;5030838;28;20052;-48
2021/08/21 02:17:16;;;;;;;7.30;3.80;;;;;;;21.46;44.18;99744.84;5031404;28;20018;-47
2021/08/21 02:19:41;;;;;;;9.38;3.60;;;;;;;21.27;44.67;99747.28;5031825;28;20017;-47
2021/08/21 02:22:07;;;;;;;6.00;3.60;;;;;;;21.19;44.79;99752.44;5031706;28;20022;-47
2021/08/21 02:24:33;;;;;;;5.57;3.40;;;;;;;21.43;44.12;99756.16;5031703;28;20517;-48
2021/08/21 02:27:00;;;;;;;5.65;3.55;;;;;;;21.22;44.96;99752.69;5048460;28;20025;-49
2021/08/21 02:29:26;;;;;;;6.00;3.58;;;;;;;21.06;44.97;99751.13;5051604;28;20025;-47
2021/08/21 02:31:55;;;;;;;6.53;3.60;;;;;;;21.26;44.34;99750.25;5051561;28;20029;-48
2021/08/21 02:34:23;;;;;;;8.10;4.00;;;;;;;21.46;43.71;99747.53;5051698;28;20023;-47
2021/08/21 02:36:49;;;;;;;4.45;3.55;;;;;;;21.48;43.83;99745.38;5051563;28;20032;-47
2021/08/21 02:39:14;;;;;;;5.15;3.40;;;;;;;21.20;44.52;99754.88;5051312;28;20025;-47
2021/08/21 02:41:40;;;;;;;5.40;3.63;;;;;;;21.31;43.95;99758.38;5051378;28;20037;-48
2021/08/21 02:44:05;;;;;;;6.97;3.70;;;;;;;21.18;44.67;99754.34;5051345;28;20025;-46
2021/08/21 02:46:31;;;;;;;4.72;3.40;;;;;;;21.55;43.47;99745.09;5051549;28;20029;-49
2021/08/21 02:48:57;;;;;;;7.22;3.72;;;;;;;21.17;44.62;99757.31;5051234;28;20357;-47
2021/08/21 02:51:22;;;;;;;6.38;3.45;;;;;;;21.05;44.86;99749.50;5051580;28;20032;-47
2021/08/21 02:53:47;;;;;;;5.47;3.53;;;;;;;21.02;45.46;99755.47;5051481;28;20032;-47
2021/08/21 02:56:13;;;;;;;6.65;3.70;;;;;;;21.43;44.05;99758.06;5051155;28;20469;-46
2021/08/21 02:58:38;;;;;;;6.65;3.70;;;;;;;21.34;44.73;99757.00;5051041;28;20599;-47
2021/08/21 03:01:04;;;;;;;6.55;3.80;;;;;;;21.24;44.44;99771.38;5051391;28;20021;-50
2021/08/21 03:03:29;;;;;;;4.60;3.38;;;;;;;20.95;45.75;99771.94;5051239;28;20024;-47
2021/08/21 03:05:55;;;;;;;6.47;3.75;;;;;;;21.27;44.96;99776.25;5051346;28;20032;-48
2021/08/21 03:08:20;;;;;;;4.85;3.67;;;;;;;21.84;43.39;99769.59;5009708;28;1204250;-46
2021/08/21 03:10:46;;;;;;;14.85;10.40;;;;;;;21.09;46.04;99783.88;5051817;28;20036;-47
2021/08/21 03:13:11;;;;;;;56.97;36.22;;;;;;;20.84;47.19;99786.56;5051898;28;20037;-48
2021/08/21 03:15:36;;;;;;;16.75;7.93;;;;;;;21.03;46.19;99784.13;5052310;28;20079;-47
2021/08/21 03:18:03;;;;;;;15.65;7.88;;;;;;;21.55;45.12;99785.69;5051818;28;20021;-47
2021/08/21 03:20:28;;;;;;;5.28;3.88;;;;;;;21.34;45.41;99787.59;5051689;28;20111;-47
2021/08/21 03:22:54;;;;;;;6.10;3.70;;;;;;;20.99;46.39;99797.38;5052210;28;20029;-49
2021/08/21 03:25:19;;;;;;;6.20;3.90;;;;;;;20.92;46.55;99801.44;5048010;28;20025;-48
2021/08/21 03:27:45;;;;;;;5.47;3.65;;;;;;;20.95;46.69;99803.59;5031006;28;20022;-48
2021/08/21 03:30:10;;;;;;;13.23;8.35;;;;;;;21.56;45.17;99803.56;5031784;28;20029;-46
2021/08/21 03:32:36;;;;;;;19.63;12.32;;;;;;;21.00;47.06;99807.13;5031695;28;20470;-51
2021/08/21 03:35:01;;;;;;;28.80;15.93;;;;;;;21.00;46.29;99811.69;5031500;28;20021;-47
2021/08/21 03:37:27;;;;;;;8.43;4.60;;;;;;;21.22;46.08;99812.22;5031677;28;20036;-48
2021/08/21 03:39:52;;;;;;;7.82;4.10;;;;;;;21.62;44.82;99818.69;5031947;28;20030;-47
2021/08/21 03:42:18;;;;;;;7.05;4.50;;;;;;;21.23;45.86;99813.06;5031227;28;20045;-47
2021/08/21 03:44:43;;;;;;;9.40;4.40;;;;;;;21.14;46.62;99815.50;5031292;28;20029;-47
2021/08/21 03:47:09;;;;;;;7.47;4.50;;;;;;;21.04;46.90;99820.94;5031296;28;20030;-49
2021/08/21 03:49:35;;;;;;;5.90;4.13;;;;;;;21.38;46.10;99804.09;5031202;28;20175;-47
2021/08/21 03:52:00;;;;;;;6.03;4.05;;;;;;;21.52;46.23;99820.63;5031362;28;20171;-48
2021/08/21 03:54:26;;;;;;;7.70;4.28;;;;;;;21.33;46.29;99823.88;5031276;28;20400;-48
2021/08/21 03:56:51;;;;;;;8.38;4.30;;;;;;;21.22;46.63;99828.47;5031051;28;20029;-48
2021/08/21 03:59:17;;;;;;;6.28;3.97;;;;;;;21.35;46.49;99829.00;5030981;28;20417;-48
2021/08/21 04:01:42;;;;;;;8.90;4.38;;;;;;;22.27;44.30;99817.94;5030625;28;20040;-49
2021/08/21 04:04:08;;;;;;;7.97;4.30;;;;;;;21.62;45.95;99821.41;5030970;28;20393;-48
2021/08/21 04:06:33;;;;;;;9.10;4.10;;;;;;;21.42;47.02;99821.44;5030973;28;20025;-47
2021/08/21 04:08:58;;;;;;;6.03;4.30;;;;;;;21.56;46.30;99827.13;5030907;28;20466;-47
2021/08/21 04:11:24;;;;;;;9.38;4.47;;;;;;;22.32;44.93;99822.53;5031034;28;20025;-47
2021/08/21 04:13:49;;;;;;;10.88;6.03;;;;;;;22.24;45.29;99819.28;5031093;28;20468;-47
2021/08/21 04:16:15;;;;;;;8.02;4.05;;;;;;;22.04;45.35;99820.16;5030572;28;20026;-48
2021/08/21 04:18:40;;;;;;;18.00;10.15;;;;;;;21.95;45.28;99821.84;5030311;28;20465;-49
2021/08/21 04:21:06;;;;;;;10.68;5.63;;;;;;;22.32;44.19;99826.03;5030740;28;20091;-47
2021/08/21 04:23:31;;;;;;;8.60;5.57;;;;;;;23.13;42.66;99826.59;5030888;28;20029;-47
2021/08/21 04:26:00;;;;;;;7.20;4.55;;;;;;;22.95;42.59;99829.97;5038640;28;20108;-46
2021/08/21 04:28:28;;;;;;;7.33;4.10;;;;;;;22.80;43.11;99834.41;5050182;28;20021;-46
2021/08/21 04:30:54;;;;;;;7.80;4.60;;;;;;;22.76;43.39;99827.13;5049018;28;20548;-46
2021/08/21 04:33:20;;;;;;;8.65;4.43;;;;;;;23.58;41.10;99829.94;5049977;28;20041;-46
2021/08/21 04:35:45;;;;;;;9.15;4.15;;;;;;;23.64;40.70;99825.28;5050109;28;20079;-47
2021/08/21 04:38:11;;;;;;;9.50;5.40;;;;;;;23.32;42.16;99836.72;5050127;28;20082;-47
2021/08/21 04:40:36;;;;;;;6.57;4.85;;;;;;;23.32;42.24;99834.84;5050306;28;20040;-48
2021/08/21 04:43:02;;;;;;;10.15;4.32;;;;;;;23.84;41.05;99831.59;5049272;28;20063;-49
2021/08/21 04:45:27;;;;;;;5.65;4.38;;;;;;;24.61;38.86;99828.72;5049881;28;20110;-48
2021/08/21 04:47:53;;;;;;;8.30;3.95;;;;;;;24.12;40.25;99838.88;5049260;28;20377;-49
2021/08/21 04:50:18;;;;;;;8.27;4.32;;;;;;;24.07;39.84;99838.94;5049413;28;20040;-47
2021/08/21 04:52:44;;;;;;;5.45;3.88;;;;;;;23.96;40.20;99849.13;5049294;28;20053;-49
2021/08/21 04:55:10;;;;;;;8.73;4.70;;;;;;;24.62;38.88;99824.91;5049337;28;20346;-49
2021/08/21 04:57:35;;;;;;;5.75;4.05;;;;;;;24.47;39.62;99847.66;5049192;28;20100;-50
2021/08/21 05:00:02;;;;;;;6.68;4.55;;;;;;;24.42;39.85;99844.19;5049332;28;20035;-50
2021/08/21 05:02:28;;;;;;;6.75;4.32;;;;;;;24.71;39.14;99861.22;5049394;28;20027;-49
2021/08/21 05:04:53;;;;;;;6.10;4.40;;;;;;;25.14;38.58;99858.34;5049434;28;20021;-49
2021/08/21 05:07:19;;;;;;;7.10;4.43;;;;;;;25.48;37.80;99859.19;5049165;28;20053;-47
2021/08/21 05:09:44;;;;;;;8.27;4.55;;;;;;;25.24;38.49;99859.31;5049282;28;20385;-51
2021/08/21 05:12:10;;;;;;;7.47;4.85;;;;;;;25.55;37.61;99857.69;5049299;28;20070;-48
2021/08/21 05:14:35;;;;;;;8.98;4.70;;;;;;;25.52;37.93;99854.75;5049037;28;20508;-50
2021/08/21 05:17:01;;;;;;;7.63;4.22;;;;;;;26.26;36.64;99856.59;5048705;28;20103;-48
2021/08/21 05:19:34;;;;;;;7.22;4.45;;;;;;;26.08;36.67;99861.06;5048962;28;20021;-48
2021/08/21 05:22:20;;;;;;;7.55;3.80;;;;;;;25.99;35.96;99851.97;5049549;28;20090;-48
2021/08/21 05:24:45;;;;;;;6.45;3.83;;;;;;;25.85;36.31;99871.03;5048955;28;20024;-48
2021/08/21 05:27:10;;;;;;;5.82;4.28;;;;;;;26.75;34.40;99865.91;5030745;28;20063;-49
2021/08/21 05:29:35;;;;;;;8.10;4.85;;;;;;;27.13;34.12;99865.56;5028938;28;20026;-50
2021/08/21 05:32:01;;;;;;;10.20;3.60;;;;;;;26.76;34.66;99866.72;5029243;28;20048;-49
2021/08/21 05:34:26;;;;;;;8.52;4.00;;;;;;;27.02;34.45;99869.66;5011354;28;20052;-48
2021/08/21 05:36:52;;;;;;;7.35;3.92;;;;;;;27.10;34.32;99868.91;5028824;28;20466;-49
2021/08/21 05:39:17;;;;;;;7.45;3.80;;;;;;;27.73;33.61;99871.69;5029316;28;20022;-48
2021/08/21 05:41:43;;;;;;;6.45;3.97;;;;;;;27.52;33.94;99872.22;5027607;28;20038;-49
2021/08/21 05:44:08;;;;;;;7.15;4.97;;;;;;;27.25;33.89;99874.00;5028612;28;20029;-50
2021/08/21 05:46:34;;;;;;;7.80;4.35;;;;;;;27.58;33.54;99864.69;5029016;28;20037;-50
2021/08/21 05:48:59;;;;;;;5.78;3.72;;;;;;;28.49;31.67;99860.47;5029014;28;20025;-50
2021/08/21 05:51:25;;;;;;;8.07;4.07;;;;;;;28.42;31.74;99866.41;5032472;28;20446;-48
2021/08/21 05:53:50;;;;;;;8.65;3.92;;;;;;;28.13;32.65;99855.28;5032536;28;20398;-48
2021/08/21 05:56:16;;;;;;;6.78;4.07;;;;;;;28.16;32.50;99852.72;5047841;28;20457;-47
2021/08/21 05:58:41;;;;;;;7.03;4.13;;;;;;;28.43;31.81;99862.56;5052063;28;20028;-51
2021/08/21 06:01:07;;;;;;;5.88;3.70;;;;;;;29.03;31.04;99861.00;5052221;28;20094;-50
2021/08/21 06:03:32;;;;;;;6.60;4.20;;;;;;;28.62;31.77;99862.28;5052001;28;20400;-52
2021/08/21 06:05:57;;;;;;;8.18;4.25;;;;;;;28.76;31.60;99867.59;5051977;28;20057;-51
2021/08/21 06:08:23;;;;;;;10.35;4.22;;;;;;;28.21;32.20;99865.44;5050037;28;20055;-48
2021/08/21 06:10:48;;;;;;;5.15;3.92;;;;;;;29.39;30.82;99861.75;5051787;28;20033;-50
2021/08/21 06:13:14;;;;;;;8.95;4.25;;;;;;;29.43;30.37;99865.44;5050001;28;20029;-51
2021/08/21 06:15:39;;;;;;;6.57;4.15;;;;;;;29.10;30.98;99857.75;5050092;28;20436;-50
2021/08/21 06:18:05;;;;;;;5.97;4.07;;;;;;;28.94;31.04;99853.91;5051837;28;20414;-48
2021/08/21 06:20:31;;;;;;;7.97;4.40;;;;;;;29.52;30.46;99862.69;5051955;28;20029;-49
2021/08/21 06:22:56;;;;;;;8.32;3.95;;;;;;;29.83;30.37;99856.91;5052063;28;20033;-48
2021/08/21 06:25:21;;;;;;;6.88;3.97;;;;;;;29.82;30.41;99864.34;5048588;28;20148;-48
2021/08/21 06:27:48;;;;;;;6.65;4.10;;;;;;;29.70;30.54;99866.97;5032627;28;20037;-47
2021/08/21 06:30:14;;;;;;;7.22;3.85;;;;;;;29.85;29.96;99862.88;5032632;28;20034;-47
2021/08/21 06:32:40;;;;;;;9.27;4.40;;;;;;;30.70;28.84;99859.13;5032280;28;20033;-49
2021/08/21 06:35:06;;;;;;;7.13;4.25;;;;;;;30.28;29.08;99861.03;5032078;28;20025;-47
2021/08/21 06:37:31;;;;;;;9.07;4.13;;;;;;;30.34;29.65;99862.47;5031488;28;20504;-48
2021/08/21 06:39:57;;;;;;;7.28;3.90;;;;;;;30.26;29.72;99863.31;5031431;28;20064;-49
2021/08/21 06:42:22;;;;;;;8.35;4.28;;;;;;;29.99;30.05;99868.94;5031951;28;20041;-48
2021/08/21 06:44:48;;;;;;;7.55;4.20;;;;;;;29.95;29.80;99867.19;5031932;28;20026;-50
2021/08/21 06:47:13;;;;;;;6.85;4.18;;;;;;;29.76;30.67;99862.94;5031733;28;20072;-50
2021/08/21 06:49:40;;;;;;;8.23;4.35;;;;;;;30.05;29.80;99860.53;5031999;28;20021;-49
2021/08/21 06:52:06;;;;;;;7.00;4.20;;;;;;;30.08;29.99;99871.63;5030633;28;20021;-48
2021/08/21 06:54:31;;;;;;;7.45;4.28;;;;;;;30.44;29.44;99866.78;5031822;28;20331;-49
2021/08/21 06:56:56;;;;;;;6.53;4.30;;;;;;;30.27;29.68;99868.44;5031347;28;20099;-50
2021/08/21 06:59:22;;;;;;;8.25;4.22;;;;;;;30.28;29.65;99872.03;5031958;28;20033;-50
2021/08/21 07:01:47;;;;;;;8.05;4.07;;;;;;;30.25;30.33;99872.69;5030690;28;20025;-49
2021/08/21 07:04:14;;;;;;;6.60;4.50;;;;;;;31.26;28.44;99863.47;5031650;28;20398;-51
2021/08/21 07:06:39;;;;;;;5.82;4.18;;;;;;;31.23;27.97;99859.47;5031274;28;20524;-50
2021/08/21 07:09:05;;;;;;;5.10;4.40;;;;;;;31.30;27.81;99867.16;5031360;28;20026;-50
2021/08/21 07:11:30;;;;;;;8.20;4.25;;;;;;;31.22;27.96;99868.84;5031151;28;20382;-50
2021/08/21 07:13:56;;;;;;;6.93;4.50;;;;;;;31.97;27.52;99870.59;5031325;28;20037;-47
2021/08/21 07:16:21;;;;;;;6.63;4.30;;;;;;;32.26;26.84;99866.81;5031210;28;20029;-50
2021/08/21 07:18:47;;;;;;;8.35;4.22;;;;;;;31.59;27.54;99870.91;5031675;28;20112;-49
2021/08/21 07:21:12;;;;;;;10.55;4.18;;;;;;;31.68;27.90;99868.84;5030943;28;20493;-50
2021/08/21 07:23:38;;;;;;;7.30;4.30;;;;;;;31.85;27.35;99865.09;5031255;28;20041;-51
2021/08/21 07:26:03;;;;;;;9.73;4.70;;;;;;;32.81;25.96;99855.44;5040735;28;20108;-49
2021/08/21 07:28:30;;;;;;;7.90;4.80;;;;;;;32.37;26.34;99860.81;5051279;28;20416;-49
2021/08/21 07:30:55;;;;;;;6.68;4.25;;;;;;;32.30;26.56;99864.97;5051023;28;20048;-52
2021/08/21 07:33:21;;;;;;;7.22;4.63;;;;;;;31.88;27.07;99867.16;5050868;28;20033;-51
2021/08/21 07:35:46;;;;;;;7.53;4.72;;;;;;;32.70;26.39;99871.66;5050998;28;20078;-50
2021/08/21 07:38:12;;;;;;;6.05;4.60;;;;;;;32.95;26.46;99866.06;5050814;28;20051;-48
2021/08/21 07:40:37;;;;;;;9.98;4.63;;;;;;;32.05;26.86;99863.41;5050451;28;20044;-50
2021/08/21 07:43:03;;;;;;;8.07;4.50;;;;;;;31.73;27.52;99869.44;5050307;28;20039;-48
2021/08/21 07:45:28;;;;;;;7.72;4.80;;;;;;;32.18;26.73;99862.25;5050811;28;20067;-51
2021/08/21 07:47:54;;;;;;;6.10;4.30;;;;;;;32.78;26.49;99858.91;5050200;28;20028;-51
2021/08/21 07:50:19;;;;;;;6.75;4.53;;;;;;;32.85;26.02;99857.13;5050547;28;20020;-51
2021/08/21 07:52:45;;;;;;;7.72;4.10;;;;;;;32.87;25.54;99859.53;5050801;28;20048;-51
2021/08/21 07:55:12;;;;;;;8.23;3.80;;;;;;;32.98;25.03;99860.66;5050326;28;20483;-51
2021/08/21 07:57:37;;;;;;;6.15;4.00;;;;;;;33.64;24.55;99852.94;5050223;28;20039;-48
2021/08/21 08:00:03;;;;;;;7.80;4.15;;;;;;;33.63;24.26;99859.59;5050028;28;20032;-49
2021/08/21 08:02:29;;;;;;;6.15;4.05;;;;;;;33.55;24.41;99850.34;5050562;28;20473;-51
2021/08/21 08:04:54;;;;;;;5.18;4.15;;;;;;;33.48;24.64;99861.97;5050379;28;20039;-50
2021/08/21 08:07:20;;;;;;;9.52;4.57;;;;;;;34.04;23.64;99855.50;5050064;28;20049;-50
2021/08/21 08:09:45;;;;;;;5.72;4.20;;;;;;;34.57;23.21;99857.84;5050465;28;20028;-50
2021/08/21 08:12:11;;;;;;;5.25;4.10;;;;;;;33.12;25.12;99857.50;5050045;28;20029;-49
2021/08/21 08:14:36;;;;;;;6.13;4.05;;;;;;;33.09;25.26;99855.41;5050395;28;20537;-50
2021/08/21 08:17:02;;;;;;;5.38;3.92;;;;;;;33.41;24.94;99850.75;5050303;28;20056;-51
2021/08/21 08:19:27;;;;;;;4.45;3.95;;;;;;;34.05;24.18;99857.06;5049998;28;20094;-49
2021/08/21 08:21:53;;;;;;;5.40;4.28;;;;;;;34.16;23.86;99851.84;5050184;28;20028;-50
2021/08/21 08:24:19;;;;;;;8.43;4.53;;;;;;;33.84;24.60;99851.84;5049388;28;20185;-50
2021/08/21 08:26:45;;;;;;;8.82;4.68;;;;;;;33.86;24.03;99849.53;5034995;28;20044;-50
2021/08/21 08:29:11;;;;;;;5.18;3.88;;;;;;;34.08;24.19;99845.31;5029683;28;20409;-51
2021/08/21 08:31:36;;;;;;;6.80;4.10;;;;;;;34.26;23.92;99845.75;5029732;28;20025;-50
2021/08/21 08:34:03;;;;;;;6.28;4.22;;;;;;;33.83;24.60;99841.19;5028485;28;20052;-50
2021/08/21 08:36:28;;;;;;;6.43;4.43;;;;;;;33.57;25.26;99836.22;5029648;28;20040;-49
2021/08/21 08:38:53;;;;;;;7.80;4.35;;;;;;;33.95;24.61;99838.31;5029947;28;20022;-51
2021/08/21 08:41:21;;;;;;;5.68;3.97;;;;;;;34.83;23.48;99840.63;5029564;28;20045;-52
2021/08/21 08:43:46;;;;;;;5.97;4.65;;;;;;;34.53;23.95;99836.84;5029730;28;20065;-51
2021/08/21 08:46:12;;;;;;;5.70;4.30;;;;;;;33.77;24.69;99828.81;5029783;28;20049;-51
2021/08/21 08:48:37;;;;;;;6.10;4.45;;;;;;;33.73;24.69;99831.50;5028761;28;20021;-51
2021/08/21 08:51:03;;;;;;;7.60;4.28;;;;;;;34.17;24.01;99828.56;5030050;28;20037;-51
2021/08/21 08:53:29;;;;;;;5.15;4.32;;;;;;;34.47;23.22;99826.06;5029717;28;20025;-51
2021/08/21 08:55:54;;;;;;;4.78;4.20;;;;;;;33.98;24.37;99826.53;5029645;28;20108;-50
2021/08/21 08:58:19;;;;;;;6.05;4.20;;;;;;;34.05;23.19;99821.19;5029463;28;20029;-51
2021/08/21 09:00:45;;;;;;;6.95;4.45;;;;;;;33.67;23.67;99819.94;5029546;28;20021;-50
2021/08/21 09:03:19;;;;;;;6.95;4.30;;;;;;;34.68;22.86;99816.66;5029319;28;20129;-49
2021/08/21 09:05:44;;;;;;;8.25;4.30;;;;;;;34.34;23.78;99819.06;5029673;28;20031;-51
2021/08/21 09:08:21;;;;;;;7.10;3.92;;;;;;;33.91;24.32;99818.13;5029374;28;20107;-49
2021/08/21 09:10:46;;;;;;;6.22;4.25;;;;;;;33.61;24.60;99817.78;5029830;28;20034;-48
2021/08/21 09:13:13;;;;;;;5.38;4.32;;;;;;;34.37;23.77;99821.13;5029535;28;20090;-52
2021/08/21 09:15:40;;;;;;;7.10;3.97;;;;;;;34.22;24.05;99817.25;5029271;28;20025;-52
2021/08/21 09:18:10;;;;;;;6.95;4.25;;;;;;;34.02;24.28;99818.34;5029272;28;20494;-50
2021/08/21 09:20:52;;;;;;;7.50;4.20;;;;;;;33.97;23.60;99821.41;5029465;28;20044;-50
2021/08/21 09:23:24;;;;;;;6.72;4.32;;;;;;;34.09;23.45;99813.78;5029060;28;20125;-51
2021/08/21 09:25:55;;;;;;;6.82;4.20;;;;;;;34.80;22.87;99810.94;5040310;28;20024;-51
2021/08/21 09:28:27;;;;;;;8.45;5.18;;;;;;;34.30;23.63;99814.66;5053368;28;20036;-51
2021/08/21 09:31:11;;;;;;;6.18;4.70;;;;;;;34.44;23.40;99810.22;5053071;28;20111;-51
2021/08/21 09:33:39;;;;;;;5.35;4.25;;;;;;;34.30;23.57;99809.13;5053107;28;20135;-51
2021/08/21 09:36:05;;;;;;;4.93;4.40;;;;;;;35.27;22.36;99811.84;5053027;28;20542;-51
2021/08/21 09:38:34;;;;;;;5.72;4.00;;;;;;;35.11;21.62;99806.41;5052699;28;20036;-52
2021/08/21 09:41:06;;;;;;;5.53;4.20;;;;;;;34.19;23.79;99804.16;5052607;28;20032;-49
2021/08/21 09:43:34;;;;;;;6.07;4.32;;;;;;;34.16;23.33;99804.13;5051708;28;20071;-51
2021/08/21 09:46:20;;;;;;;6.43;3.95;;;;;;;34.69;22.66;99796.16;5052775;28;20188;-51
2021/08/21 09:49:03;;;;;;;11.32;4.18;;;;;;;34.49;22.79;99778.75;5052871;28;20029;-50
2021/08/21 09:51:41;;;;;;;7.50;3.92;;;;;;;34.33;23.34;99780.78;5052828;28;20052;-51
2021/08/21 09:54:12;;;;;;;4.75;4.13;;;;;;;34.32;23.96;99782.75;5052747;28;20033;-48
2021/08/21 09:56:39;;;;;;;4.90;4.20;;;;;;;34.75;23.44;99777.28;5051258;28;20485;-50
2021/08/21 09:59:05;;;;;;;9.27;4.15;;;;;;;35.05;23.00;99766.38;5052870;28;20056;-52
2021/08/21 10:01:31;;;;;;;5.10;3.90;;;;;;;34.81;23.43;99773.88;5052444;28;20021;-51
2021/08/21 10:03:57;;;;;;;7.43;4.28;;;;;;;34.50;23.72;99772.06;5051017;28;20032;-51
2021/08/21 10:06:24;;;;;;;5.95;4.10;;;;;;;34.43;23.56;99756.16;5052936;28;20049;-49
2021/08/21 10:09:27;;;;;;;6.80;4.03;;;;;;;35.40;22.51;99770.97;5052446;28;20127;-51
2021/08/21 10:11:44;;;;;;;7.00;4.43;;;;;;;34.87;23.35;99771.59;5051209;28;20040;-49
2021/08/21 10:14:09;;;;;;;6.40;4.18;;;;;;;34.37;23.87;99765.09;5052542;28;20252;-49
2021/08/21 10:16:35;;;;;;;6.22;4.15;;;;;;;34.30;23.89;99768.50;5034397;28;20021;-50
2021/08/21 10:19:00;;;;;;;5.40;3.97;;;;;;;34.93;22.77;99767.38;5034355;28;20113;-51
2021/08/21 10:21:26;;;;;;;7.00;3.83;;;;;;;35.03;22.50;99758.47;5052280;28;20028;-49
2021/08/21 10:23:52;;;;;;;6.30;3.97;;;;;;;34.98;22.08;99778.13;5052278;28;20404;-50
2021/08/21 10:26:39;;;;;;;7.72;4.00;;;;;;;34.60;21.72;99759.63;5040716;28;20041;-50
2021/08/21 10:29:11;;;;;;;6.53;3.65;;;;;;;34.26;21.99;99754.63;5032416;28;20022;-49
2021/08/21 10:31:44;;;;;;;4.13;3.70;;;;;;;34.80;21.98;99757.66;5032072;28;20029;-50
2021/08/21 10:34:11;;;;;;;4.20;3.67;;;;;;;34.49;21.89;99751.13;5032034;28;20040;-51
2021/08/21 10:36:52;;;;;;;4.95;3.33;;;;;;;34.13;22.36;99755.09;5031712;28;20022;-49
2021/08/21 10:39:24;;;;;;;6.13;3.72;;;;;;;34.07;22.56;99751.81;5032465;28;20032;-49
2021/08/21 10:41:52;;;;;;;5.90;3.67;;;;;;;34.88;22.22;99739.22;5030698;28;20030;-51
2021/08/21 10:44:40;;;;;;;6.20;3.95;;;;;;;34.30;22.46;99746.41;5036519;28;20040;-51
2021/08/21 10:47:06;;;;;;;5.40;3.90;;;;;;;34.07;22.45;99751.81;5049933;28;20040;-51
2021/08/21 10:49:45;;;;;;;6.60;3.92;;;;;;;34.28;22.08;99746.78;5049857;28;20036;-48
2021/08/21 10:52:44;;;;;;;5.45;3.95;;;;;;;34.38;22.56;99739.06;5051807;28;20041;-49
2021/08/21 10:55:13;;;;;;;6.05;3.65;;;;;;;34.15;22.48;99730.69;5052353;28;20029;-49
2021/08/21 10:57:53;;;;;;;5.05;3.72;;;;;;;34.22;22.71;99728.91;5050936;28;20036;-51
2021/08/21 11:00:38;;;;;;;6.03;4.10;;;;;;;33.86;23.30;99739.16;5050391;28;20029;-50
2021/08/21 11:03:14;;;;;;;4.10;3.70;;;;;;;34.04;22.64;99735.97;5051667;28;20037;-53
2021/08/21 11:06:03;;;;;;;4.03;3.63;;;;;;;33.69;23.01;99734.06;5051479;28;20029;-51
2021/08/21 11:08:30;;;;;;;5.75;3.72;;;;;;;33.52;22.65;99717.88;5051510;28;20520;-51
2021/08/21 11:11:08;;;;;;;4.70;3.40;;;;;;;33.64;22.69;99724.09;5051566;28;20033;-50
2021/08/21 11:14:04;;;;;;;6.25;3.80;;;;;;;33.92;22.04;99725.09;5051215;28;20111;-49
2021/08/21 11:16:57;;;;;;;5.32;3.70;;;;;;;34.38;21.95;99715.00;5051492;28;20029;-50
2021/08/21 11:19:22;;;;;;;6.15;3.45;;;;;;;34.35;22.18;99712.16;5051176;28;20060;-52
2021/08/21 11:21:48;;;;;;;4.20;3.58;;;;;;;34.33;22.57;99701.50;5051078;28;20056;-50
2021/08/21 11:24:25;;;;;;;4.28;3.58;;;;;;;34.89;21.77;99700.19;5050225;28;20029;-52
2021/08/21 11:27:22;;;;;;;6.03;3.22;;;;;;;35.46;21.22;99703.06;5050761;28;20035;-50
2021/08/21 11:30:27;;;;;;;7.10;3.58;;;;;;;35.22;20.87;99709.81;5050672;28;20029;-49
2021/08/21 11:33:06;;;;;;;7.13;3.55;;;;;;;35.28;21.71;99682.66;5050537;28;20065;-48